sensor_id;sensor_type;location;lat;lon;timestamp;P1;durP1;ratioP1;P2;durP2;ratioP2
41305;SDS011;27051;50.376;19.152;2023-11-19T00:01:13;23.30;;;11.20;;
41305;SDS011;27051;50.376;19.152;2023-11-19T00:07:13;31.60;;;12.90;;
41305;SDS011;27051;50.376;19.152;2023-11-19T00:10:00;23.30;;;10.90;;
41305;SDS011;27051;50.376;19.152;2023-11-19T00:12:31;24.30;;;10.40;;
41305;SDS011;27051;50.376;19.152;2023-11-19T00:15:01;25.40;;;11.20;;
41305;SDS011;27051;50.376;19.152;2023-11-19T00:17:28;24.80;;;11.30;;
41305;SDS011;27051;50.376;19.152;2023-11-19T00:19:56;23.50;;;12.10;;
41305;SDS011;27051;50.376;19.152;2023-11-19T00:22:36;24.40;;;12.40;;
41305;SDS011;27051;50.376;19.152;2023-11-19T00:28:00;38.40;;;18.20;;
41305;SDS011;27051;50.376;19.152;2023-11-19T00:30:36;38.30;;;17.80;;
41305;SDS011;27051;50.376;19.152;2023-11-19T00:33:06;40.60;;;20.60;;
41305;SDS011;27051;50.376;19.152;2023-11-19T00:35:33;38.60;;;19.00;;
41305;SDS011;27051;50.376;19.152;2023-11-19T00:38:00;43.20;;;20.70;;
41305;SDS011;27051;50.376;19.152;2023-11-19T00:40:28;53.00;;;23.80;;
41305;SDS011;27051;50.376;19.152;2023-11-19T00:42:58;50.60;;;22.70;;
41305;SDS011;27051;50.376;19.152;2023-11-19T00:48:07;57.50;;;25.10;;
41305;SDS011;27051;50.376;19.152;2023-11-19T00:50:37;43.70;;;22.00;;
41305;SDS011;27051;50.376;19.152;2023-11-19T00:55:56;47.80;;;23.90;;
41305;SDS011;27051;50.376;19.152;2023-11-19T00:58:26;48.90;;;23.90;;
41305;SDS011;27051;50.376;19.152;2023-11-19T01:00:56;39.40;;;19.30;;
41305;SDS011;27051;50.376;19.152;2023-11-19T01:03:23;40.20;;;19.40;;
41305;SDS011;27051;50.376;19.152;2023-11-19T01:06:10;38.20;;;18.30;;
41305;SDS011;27051;50.376;19.152;2023-11-19T01:08:37;38.00;;;18.30;;
41305;SDS011;27051;50.376;19.152;2023-11-19T01:14:11;45.90;;;25.60;;
41305;SDS011;27051;50.376;19.152;2023-11-19T01:16:50;37.60;;;19.10;;
41305;SDS011;27051;50.376;19.152;2023-11-19T01:22:17;33.50;;;17.00;;
41305;SDS011;27051;50.376;19.152;2023-11-19T01:25:05;34.60;;;17.70;;
41305;SDS011;27051;50.376;19.152;2023-11-19T01:27:35;33.70;;;17.50;;
41305;SDS011;27051;50.376;19.152;2023-11-19T01:30:15;41.00;;;20.20;;
41305;SDS011;27051;50.376;19.152;2023-11-19T01:32:45;54.40;;;29.90;;
41305;SDS011;27051;50.376;19.152;2023-11-19T01:38:19;158.30;;;44.30;;
41305;SDS011;27051;50.376;19.152;2023-11-19T01:44:06;149.00;;;40.40;;
41305;SDS011;27051;50.376;19.152;2023-11-19T01:47:15;77.60;;;26.20;;
41305;SDS011;27051;50.376;19.152;2023-11-19T01:49:40;55.10;;;21.30;;
41305;SDS011;27051;50.376;19.152;2023-11-19T01:52:17;41.60;;;19.60;;
41305;SDS011;27051;50.376;19.152;2023-11-19T01:54:48;42.20;;;19.80;;
41305;SDS011;27051;50.376;19.152;2023-11-19T02:05:56;47.70;;;20.40;;
41305;SDS011;27051;50.376;19.152;2023-11-19T02:08:23;62.60;;;26.70;;
41305;SDS011;27051;50.376;19.152;2023-11-19T02:10:50;74.90;;;29.50;;
41305;SDS011;27051;50.376;19.152;2023-11-19T02:13:18;68.90;;;26.30;;
41305;SDS011;27051;50.376;19.152;2023-11-19T02:15:46;85.50;;;32.70;;
41305;SDS011;27051;50.376;19.152;2023-11-19T02:21:12;49.60;;;20.20;;
41305;SDS011;27051;50.376;19.152;2023-11-19T02:23:48;46.20;;;20.70;;
41305;SDS011;27051;50.376;19.152;2023-11-19T02:26:21;48.80;;;21.80;;
41305;SDS011;27051;50.376;19.152;2023-11-19T02:28:55;39.00;;;18.90;;
41305;SDS011;27051;50.376;19.152;2023-11-19T02:31:32;46.70;;;19.30;;
41305;SDS011;27051;50.376;19.152;2023-11-19T02:33:59;49.70;;;22.60;;
41305;SDS011;27051;50.376;19.152;2023-11-19T02:36:26;43.40;;;19.10;;
41305;SDS011;27051;50.376;19.152;2023-11-19T02:38:57;50.10;;;22.50;;
41305;SDS011;27051;50.376;19.152;2023-11-19T02:41:26;35.40;;;17.60;;
41305;SDS011;27051;50.376;19.152;2023-11-19T02:43:53;35.50;;;16.80;;
41305;SDS011;27051;50.376;19.152;2023-11-19T02:46:41;32.80;;;15.40;;
41305;SDS011;27051;50.376;19.152;2023-11-19T02:49:08;40.70;;;18.50;;
41305;SDS011;27051;50.376;19.152;2023-11-19T02:51:56;47.90;;;20.90;;
41305;SDS011;27051;50.376;19.152;2023-11-19T02:54:25;32.50;;;15.80;;
41305;SDS011;27051;50.376;19.152;2023-11-19T02:59:21;31.50;;;14.30;;
41305;SDS011;27051;50.376;19.152;2023-11-19T03:01:48;31.50;;;14.60;;
41305;SDS011;27051;50.376;19.152;2023-11-19T03:04:15;30.50;;;15.30;;
41305;SDS011;27051;50.376;19.152;2023-11-19T03:06:42;38.10;;;18.10;;
41305;SDS011;27051;50.376;19.152;2023-11-19T03:09:09;30.20;;;12.90;;
41305;SDS011;27051;50.376;19.152;2023-11-19T03:11:37;33.50;;;14.20;;
41305;SDS011;27051;50.376;19.152;2023-11-19T03:14:04;30.70;;;15.80;;
41305;SDS011;27051;50.376;19.152;2023-11-19T03:19:21;27.70;;;13.90;;
41305;SDS011;27051;50.376;19.152;2023-11-19T03:21:48;31.50;;;14.90;;
41305;SDS011;27051;50.376;19.152;2023-11-19T03:24:18;31.90;;;14.90;;
41305;SDS011;27051;50.376;19.152;2023-11-19T03:26:48;30.30;;;15.10;;
41305;SDS011;27051;50.376;19.152;2023-11-19T03:29:16;30.00;;;13.90;;
41305;SDS011;27051;50.376;19.152;2023-11-19T03:31:42;31.90;;;15.60;;
41305;SDS011;27051;50.376;19.152;2023-11-19T03:34:10;27.60;;;13.60;;
41305;SDS011;27051;50.376;19.152;2023-11-19T03:36:37;30.10;;;14.30;;
41305;SDS011;27051;50.376;19.152;2023-11-19T03:39:13;31.20;;;13.70;;
41305;SDS011;27051;50.376;19.152;2023-11-19T03:41:45;27.90;;;14.30;;
41305;SDS011;27051;50.376;19.152;2023-11-19T03:44:12;30.80;;;14.10;;
41305;SDS011;27051;50.376;19.152;2023-11-19T03:46:39;29.90;;;13.40;;
41305;SDS011;27051;50.376;19.152;2023-11-19T03:49:06;32.40;;;14.00;;
41305;SDS011;27051;50.376;19.152;2023-11-19T03:51:34;30.20;;;13.50;;
41305;SDS011;27051;50.376;19.152;2023-11-19T03:54:11;27.00;;;14.00;;
41305;SDS011;27051;50.376;19.152;2023-11-19T03:57:00;29.50;;;13.40;;
41305;SDS011;27051;50.376;19.152;2023-11-19T03:59:26;27.00;;;13.30;;
41305;SDS011;27051;50.376;19.152;2023-11-19T04:01:52;26.90;;;13.10;;
41305;SDS011;27051;50.376;19.152;2023-11-19T04:04:20;26.80;;;12.20;;
41305;SDS011;27051;50.376;19.152;2023-11-19T04:06:47;30.90;;;13.40;;
41305;SDS011;27051;50.376;19.152;2023-11-19T04:12:24;23.20;;;12.00;;
41305;SDS011;27051;50.376;19.152;2023-11-19T04:17:48;25.80;;;13.30;;
41305;SDS011;27051;50.376;19.152;2023-11-19T04:23:26;25.50;;;12.20;;
41305;SDS011;27051;50.376;19.152;2023-11-19T04:25:57;24.40;;;11.40;;
41305;SDS011;27051;50.376;19.152;2023-11-19T04:32:12;22.20;;;11.40;;
41305;SDS011;27051;50.376;19.152;2023-11-19T04:34:42;26.00;;;12.00;;
41305;SDS011;27051;50.376;19.152;2023-11-19T04:37:09;27.60;;;13.10;;
41305;SDS011;27051;50.376;19.152;2023-11-19T04:39:47;38.80;;;20.70;;
41305;SDS011;27051;50.376;19.152;2023-11-19T04:42:15;31.00;;;16.90;;
41305;SDS011;27051;50.376;19.152;2023-11-19T04:44:42;39.30;;;21.50;;
41305;SDS011;27051;50.376;19.152;2023-11-19T04:47:10;41.20;;;22.70;;
41305;SDS011;27051;50.376;19.152;2023-11-19T04:52:20;40.20;;;21.20;;
41305;SDS011;27051;50.376;19.152;2023-11-19T04:54:47;36.30;;;20.30;;
41305;SDS011;27051;50.376;19.152;2023-11-19T04:57:14;43.40;;;24.10;;
41305;SDS011;27051;50.376;19.152;2023-11-19T04:59:44;46.70;;;26.10;;
41305;SDS011;27051;50.376;19.152;2023-11-19T05:02:14;46.70;;;26.70;;
41305;SDS011;27051;50.376;19.152;2023-11-19T05:04:44;40.70;;;24.00;;
41305;SDS011;27051;50.376;19.152;2023-11-19T05:07:11;38.40;;;22.20;;
41305;SDS011;27051;50.376;19.152;2023-11-19T05:09:38;41.30;;;23.30;;
41305;SDS011;27051;50.376;19.152;2023-11-19T05:12:08;43.00;;;21.90;;
41305;SDS011;27051;50.376;19.152;2023-11-19T05:14:44;32.20;;;17.30;;
41305;SDS011;27051;50.376;19.152;2023-11-19T05:17:11;34.10;;;18.40;;
41305;SDS011;27051;50.376;19.152;2023-11-19T05:19:38;33.00;;;17.20;;
41305;SDS011;27051;50.376;19.152;2023-11-19T05:22:05;40.10;;;20.00;;
41305;SDS011;27051;50.376;19.152;2023-11-19T05:24:33;29.20;;;14.70;;
41305;SDS011;27051;50.376;19.152;2023-11-19T05:26:59;29.60;;;13.90;;
41305;SDS011;27051;50.376;19.152;2023-11-19T05:29:34;36.70;;;18.50;;
41305;SDS011;27051;50.376;19.152;2023-11-19T05:32:01;37.40;;;17.20;;
41305;SDS011;27051;50.376;19.152;2023-11-19T05:34:30;36.60;;;17.40;;
41305;SDS011;27051;50.376;19.152;2023-11-19T05:36:57;32.40;;;15.50;;
41305;SDS011;27051;50.376;19.152;2023-11-19T05:39:25;33.30;;;14.90;;
41305;SDS011;27051;50.376;19.152;2023-11-19T05:41:51;31.70;;;14.60;;
41305;SDS011;27051;50.376;19.152;2023-11-19T05:44:19;51.50;;;21.30;;
41305;SDS011;27051;50.376;19.152;2023-11-19T05:46:51;363.00;;;118.30;;
41305;SDS011;27051;50.376;19.152;2023-11-19T05:49:18;165.40;;;55.10;;
41305;SDS011;27051;50.376;19.152;2023-11-19T05:51:45;127.20;;;44.90;;
41305;SDS011;27051;50.376;19.152;2023-11-19T05:54:21;82.60;;;30.60;;
41305;SDS011;27051;50.376;19.152;2023-11-19T05:56:49;81.00;;;29.30;;
41305;SDS011;27051;50.376;19.152;2023-11-19T05:59:19;113.00;;;41.60;;
41305;SDS011;27051;50.376;19.152;2023-11-19T06:01:46;81.50;;;32.70;;
41305;SDS011;27051;50.376;19.152;2023-11-19T06:04:13;86.00;;;32.10;;
41305;SDS011;27051;50.376;19.152;2023-11-19T06:06:40;77.10;;;31.60;;
41305;SDS011;27051;50.376;19.152;2023-11-19T06:09:07;75.70;;;36.50;;
41305;SDS011;27051;50.376;19.152;2023-11-19T06:11:34;51.40;;;26.00;;
41305;SDS011;27051;50.376;19.152;2023-11-19T06:14:03;52.20;;;27.60;;
41305;SDS011;27051;50.376;19.152;2023-11-19T06:16:31;35.60;;;17.70;;
41305;SDS011;27051;50.376;19.152;2023-11-19T06:18:58;36.10;;;19.00;;
41305;SDS011;27051;50.376;19.152;2023-11-19T06:21:25;32.60;;;18.30;;
41305;SDS011;27051;50.376;19.152;2023-11-19T06:23:52;35.50;;;17.10;;
41305;SDS011;27051;50.376;19.152;2023-11-19T06:26:19;34.40;;;17.40;;
41305;SDS011;27051;50.376;19.152;2023-11-19T06:28:46;34.80;;;16.60;;
41305;SDS011;27051;50.376;19.152;2023-11-19T06:31:13;31.20;;;16.60;;
41305;SDS011;27051;50.376;19.152;2023-11-19T06:33:40;34.80;;;17.80;;
41305;SDS011;27051;50.376;19.152;2023-11-19T06:36:08;33.30;;;18.00;;
41305;SDS011;27051;50.376;19.152;2023-11-19T06:38:35;38.30;;;19.50;;
41305;SDS011;27051;50.376;19.152;2023-11-19T06:41:05;54.90;;;28.70;;
41305;SDS011;27051;50.376;19.152;2023-11-19T06:43:34;75.20;;;35.80;;
41305;SDS011;27051;50.376;19.152;2023-11-19T06:46:01;68.00;;;35.10;;
41305;SDS011;27051;50.376;19.152;2023-11-19T06:48:31;53.10;;;27.10;;
41305;SDS011;27051;50.376;19.152;2023-11-19T06:51:04;54.70;;;28.40;;
41305;SDS011;27051;50.376;19.152;2023-11-19T06:53:32;60.00;;;30.40;;
41305;SDS011;27051;50.376;19.152;2023-11-19T06:56:01;37.60;;;19.50;;
41305;SDS011;27051;50.376;19.152;2023-11-19T06:58:29;39.70;;;21.60;;
41305;SDS011;27051;50.376;19.152;2023-11-19T07:00:56;47.60;;;27.30;;
41305;SDS011;27051;50.376;19.152;2023-11-19T07:03:23;37.70;;;19.80;;
41305;SDS011;27051;50.376;19.152;2023-11-19T07:05:50;37.90;;;19.90;;
41305;SDS011;27051;50.376;19.152;2023-11-19T07:08:17;35.90;;;18.80;;
41305;SDS011;27051;50.376;19.152;2023-11-19T07:10:44;41.60;;;21.20;;
41305;SDS011;27051;50.376;19.152;2023-11-19T07:13:20;42.90;;;21.90;;
41305;SDS011;27051;50.376;19.152;2023-11-19T07:15:50;37.70;;;19.60;;
41305;SDS011;27051;50.376;19.152;2023-11-19T07:18:17;47.00;;;21.60;;
41305;SDS011;27051;50.376;19.152;2023-11-19T07:20:44;52.60;;;26.80;;
41305;SDS011;27051;50.376;19.152;2023-11-19T07:23:11;54.50;;;28.10;;
41305;SDS011;27051;50.376;19.152;2023-11-19T07:25:41;51.70;;;26.20;;
41305;SDS011;27051;50.376;19.152;2023-11-19T07:28:09;58.50;;;31.90;;
41305;SDS011;27051;50.376;19.152;2023-11-19T07:30:39;46.10;;;25.00;;
41305;SDS011;27051;50.376;19.152;2023-11-19T07:33:07;47.50;;;26.60;;
41305;SDS011;27051;50.376;19.152;2023-11-19T07:35:36;45.80;;;24.70;;
41305;SDS011;27051;50.376;19.152;2023-11-19T07:38:03;46.80;;;21.90;;
41305;SDS011;27051;50.376;19.152;2023-11-19T07:40:30;55.20;;;25.70;;
41305;SDS011;27051;50.376;19.152;2023-11-19T07:42:58;58.80;;;29.40;;
41305;SDS011;27051;50.376;19.152;2023-11-19T07:45:25;42.10;;;21.70;;
41305;SDS011;27051;50.376;19.152;2023-11-19T07:47:55;45.10;;;22.10;;
41305;SDS011;27051;50.376;19.152;2023-11-19T07:50:22;38.60;;;19.90;;
41305;SDS011;27051;50.376;19.152;2023-11-19T07:52:49;45.80;;;23.50;;
41305;SDS011;27051;50.376;19.152;2023-11-19T07:55:19;44.00;;;23.50;;
41305;SDS011;27051;50.376;19.152;2023-11-19T07:57:46;41.20;;;22.20;;
41305;SDS011;27051;50.376;19.152;2023-11-19T08:00:14;40.60;;;20.30;;
41305;SDS011;27051;50.376;19.152;2023-11-19T08:02:41;40.20;;;20.50;;
41305;SDS011;27051;50.376;19.152;2023-11-19T08:05:08;41.60;;;19.90;;
41305;SDS011;27051;50.376;19.152;2023-11-19T08:07:43;38.60;;;19.60;;
41305;SDS011;27051;50.376;19.152;2023-11-19T08:10:10;42.40;;;20.90;;
41305;SDS011;27051;50.376;19.152;2023-11-19T08:12:37;42.70;;;20.50;;
41305;SDS011;27051;50.376;19.152;2023-11-19T08:15:07;43.60;;;22.50;;
41305;SDS011;27051;50.376;19.152;2023-11-19T08:17:35;48.20;;;23.50;;
41305;SDS011;27051;50.376;19.152;2023-11-19T08:20:24;96.70;;;49.40;;
41305;SDS011;27051;50.376;19.152;2023-11-19T08:22:49;74.80;;;37.50;;
41305;SDS011;27051;50.376;19.152;2023-11-19T08:25:27;67.30;;;33.60;;
41305;SDS011;27051;50.376;19.152;2023-11-19T08:27:54;42.60;;;21.30;;
41305;SDS011;27051;50.376;19.152;2023-11-19T08:30:21;53.30;;;24.50;;
41305;SDS011;27051;50.376;19.152;2023-11-19T08:32:51;57.50;;;28.50;;
41305;SDS011;27051;50.376;19.152;2023-11-19T08:35:21;48.20;;;25.40;;
41305;SDS011;27051;50.376;19.152;2023-11-19T08:37:51;53.70;;;27.90;;
41305;SDS011;27051;50.376;19.152;2023-11-19T08:40:26;72.90;;;33.50;;
41305;SDS011;27051;50.376;19.152;2023-11-19T08:43:06;77.10;;;31.30;;
41305;SDS011;27051;50.376;19.152;2023-11-19T08:45:52;54.70;;;26.10;;
41305;SDS011;27051;50.376;19.152;2023-11-19T08:51:06;47.10;;;24.10;;
41305;SDS011;27051;50.376;19.152;2023-11-19T08:53:34;39.30;;;19.70;;
41305;SDS011;27051;50.376;19.152;2023-11-19T08:56:01;51.90;;;22.80;;
41305;SDS011;27051;50.376;19.152;2023-11-19T08:58:49;37.20;;;20.40;;
41305;SDS011;27051;50.376;19.152;2023-11-19T09:01:16;47.30;;;23.00;;
41305;SDS011;27051;50.376;19.152;2023-11-19T09:03:52;39.30;;;19.90;;
41305;SDS011;27051;50.376;19.152;2023-11-19T09:09:25;43.40;;;22.50;;
41305;SDS011;27051;50.376;19.152;2023-11-19T09:17:43;43.10;;;20.90;;
41305;SDS011;27051;50.376;19.152;2023-11-19T09:23:02;45.50;;;22.00;;
41305;SDS011;27051;50.376;19.152;2023-11-19T09:25:46;37.20;;;19.10;;
41305;SDS011;27051;50.376;19.152;2023-11-19T09:28:36;35.00;;;17.90;;
41305;SDS011;27051;50.376;19.152;2023-11-19T09:43:17;35.90;;;16.70;;
41305;SDS011;27051;50.376;19.152;2023-11-19T09:46:30;46.60;;;22.80;;
41305;SDS011;27051;50.376;19.152;2023-11-19T09:48:42;41.00;;;20.90;;
41305;SDS011;27051;50.376;19.152;2023-11-19T09:57:10;36.10;;;17.70;;
41305;SDS011;27051;50.376;19.152;2023-11-19T10:03:16;36.70;;;17.60;;
41305;SDS011;27051;50.376;19.152;2023-11-19T10:05:43;37.40;;;19.00;;
41305;SDS011;27051;50.376;19.152;2023-11-19T10:08:23;33.10;;;16.60;;
41305;SDS011;27051;50.376;19.152;2023-11-19T10:11:02;26.30;;;13.30;;
41305;SDS011;27051;50.376;19.152;2023-11-19T10:16:29;34.30;;;14.80;;
41305;SDS011;27051;50.376;19.152;2023-11-19T10:19:04;29.10;;;13.20;;
41305;SDS011;27051;50.376;19.152;2023-11-19T10:24:34;25.50;;;11.30;;
41305;SDS011;27051;50.376;19.152;2023-11-19T10:27:01;24.30;;;12.70;;
41305;SDS011;27051;50.376;19.152;2023-11-19T10:32:17;30.00;;;14.10;;
41305;SDS011;27051;50.376;19.152;2023-11-19T10:34:44;28.50;;;13.90;;
41305;SDS011;27051;50.376;19.152;2023-11-19T10:37:33;24.90;;;11.90;;
41305;SDS011;27051;50.376;19.152;2023-11-19T10:43:12;30.70;;;14.90;;
41305;SDS011;27051;50.376;19.152;2023-11-19T10:45:50;25.40;;;12.20;;
41305;SDS011;27051;50.376;19.152;2023-11-19T10:48:40;35.00;;;16.40;;
41305;SDS011;27051;50.376;19.152;2023-11-19T10:51:27;24.00;;;11.70;;
41305;SDS011;27051;50.376;19.152;2023-11-19T11:03:39;42.10;;;21.10;;
41305;SDS011;27051;50.376;19.152;2023-11-19T11:09:17;33.40;;;16.10;;
41305;SDS011;27051;50.376;19.152;2023-11-19T11:11:55;33.40;;;16.80;;
41305;SDS011;27051;50.376;19.152;2023-11-19T11:14:36;37.80;;;19.10;;
41305;SDS011;27051;50.376;19.152;2023-11-19T11:19:47;42.50;;;20.20;;
41305;SDS011;27051;50.376;19.152;2023-11-19T11:22:30;33.30;;;15.90;;
41305;SDS011;27051;50.376;19.152;2023-11-19T11:25:41;31.80;;;15.30;;
41305;SDS011;27051;50.376;19.152;2023-11-19T11:34:53;32.70;;;15.70;;
41305;SDS011;27051;50.376;19.152;2023-11-19T11:37:45;33.40;;;16.20;;
41305;SDS011;27051;50.376;19.152;2023-11-19T11:40:16;40.90;;;20.10;;
41305;SDS011;27051;50.376;19.152;2023-11-19T11:42:44;42.30;;;19.80;;
41305;SDS011;27051;50.376;19.152;2023-11-19T11:45:15;35.50;;;19.10;;
41305;SDS011;27051;50.376;19.152;2023-11-19T11:50:52;86.70;;;44.10;;
41305;SDS011;27051;50.376;19.152;2023-11-19T11:53:22;43.60;;;21.60;;
41305;SDS011;27051;50.376;19.152;2023-11-19T11:58:37;131.60;;;68.70;;
41305;SDS011;27051;50.376;19.152;2023-11-19T12:01:10;85.20;;;45.40;;
41305;SDS011;27051;50.376;19.152;2023-11-19T12:03:41;116.00;;;60.50;;
41305;SDS011;27051;50.376;19.152;2023-11-19T12:06:17;138.20;;;78.70;;
41305;SDS011;27051;50.376;19.152;2023-11-19T12:08:48;137.60;;;78.50;;
41305;SDS011;27051;50.376;19.152;2023-11-19T12:11:21;110.30;;;65.80;;
41305;SDS011;27051;50.376;19.152;2023-11-19T12:13:54;66.50;;;38.70;;
41305;SDS011;27051;50.376;19.152;2023-11-19T12:16:31;46.60;;;25.10;;
41305;SDS011;27051;50.376;19.152;2023-11-19T12:19:02;46.30;;;27.40;;
41305;SDS011;27051;50.376;19.152;2023-11-19T12:24:47;35.70;;;19.40;;
41305;SDS011;27051;50.376;19.152;2023-11-19T12:27:17;42.20;;;21.80;;
41305;SDS011;27051;50.376;19.152;2023-11-19T12:30:04;52.50;;;27.20;;
41305;SDS011;27051;50.376;19.152;2023-11-19T12:32:46;50.90;;;29.20;;
41305;SDS011;27051;50.376;19.152;2023-11-19T12:35:33;51.00;;;27.10;;
41305;SDS011;27051;50.376;19.152;2023-11-19T12:38:20;42.80;;;21.40;;
41305;SDS011;27051;50.376;19.152;2023-11-19T12:41:31;39.10;;;21.80;;
41305;SDS011;27051;50.376;19.152;2023-11-19T12:47:05;44.70;;;22.80;;
41305;SDS011;27051;50.376;19.152;2023-11-19T12:50:19;37.30;;;20.00;;
41305;SDS011;27051;50.376;19.152;2023-11-19T12:53:17;67.50;;;35.60;;
41305;SDS011;27051;50.376;19.152;2023-11-19T12:55:45;44.10;;;22.20;;
41305;SDS011;27051;50.376;19.152;2023-11-19T12:58:35;42.00;;;20.40;;
41305;SDS011;27051;50.376;19.152;2023-11-19T13:01:06;42.80;;;21.40;;
41305;SDS011;27051;50.376;19.152;2023-11-19T13:03:36;40.40;;;20.70;;
41305;SDS011;27051;50.376;19.152;2023-11-19T13:06:47;45.90;;;22.10;;
41305;SDS011;27051;50.376;19.152;2023-11-19T13:09:43;46.70;;;22.70;;
41305;SDS011;27051;50.376;19.152;2023-11-19T13:12:11;43.20;;;20.90;;
41305;SDS011;27051;50.376;19.152;2023-11-19T13:15:22;43.60;;;22.10;;
41305;SDS011;27051;50.376;19.152;2023-11-19T13:17:57;47.70;;;23.70;;
41305;SDS011;27051;50.376;19.152;2023-11-19T13:20:24;40.00;;;20.80;;
41305;SDS011;27051;50.376;19.152;2023-11-19T13:23:12;40.80;;;20.00;;
41305;SDS011;27051;50.376;19.152;2023-11-19T13:26:09;39.50;;;20.40;;
41305;SDS011;27051;50.376;19.152;2023-11-19T13:28:35;42.40;;;20.80;;
41305;SDS011;27051;50.376;19.152;2023-11-19T13:31:05;57.00;;;29.90;;
41305;SDS011;27051;50.376;19.152;2023-11-19T13:33:33;47.40;;;24.40;;
41305;SDS011;27051;50.376;19.152;2023-11-19T13:36:12;42.30;;;24.40;;
41305;SDS011;27051;50.376;19.152;2023-11-19T13:38:39;56.40;;;31.30;;
41305;SDS011;27051;50.376;19.152;2023-11-19T13:41:08;51.40;;;28.30;;
41305;SDS011;27051;50.376;19.152;2023-11-19T13:43:38;61.50;;;36.30;;
41305;SDS011;27051;50.376;19.152;2023-11-19T13:46:05;68.20;;;40.00;;
41305;SDS011;27051;50.376;19.152;2023-11-19T13:48:38;60.90;;;33.20;;
41305;SDS011;27051;50.376;19.152;2023-11-19T14:09:49;97.60;;;46.30;;
41305;SDS011;27051;50.376;19.152;2023-11-19T14:12:17;234.30;;;118.90;;
41305;SDS011;27051;50.376;19.152;2023-11-19T14:14:43;114.20;;;53.40;;
41305;SDS011;27051;50.376;19.152;2023-11-19T14:17:10;116.30;;;48.30;;
41305;SDS011;27051;50.376;19.152;2023-11-19T14:19:37;136.00;;;53.50;;
41305;SDS011;27051;50.376;19.152;2023-11-19T14:22:03;136.20;;;55.20;;
41305;SDS011;27051;50.376;19.152;2023-11-19T14:24:31;241.30;;;98.80;;
41305;SDS011;27051;50.376;19.152;2023-11-19T14:26:58;358.90;;;158.10;;
41305;SDS011;27051;50.376;19.152;2023-11-19T16:22:30;34.50;;;17.90;;
41305;SDS011;27051;50.376;19.152;2023-11-19T16:24:57;27.30;;;13.20;;
41305;SDS011;27051;50.376;19.152;2023-11-19T16:27:23;27.40;;;12.30;;
41305;SDS011;27051;50.376;19.152;2023-11-19T16:29:50;21.60;;;10.50;;
41305;SDS011;27051;50.376;19.152;2023-11-19T16:32:17;21.70;;;9.70;;
41305;SDS011;27051;50.376;19.152;2023-11-19T16:34:44;21.10;;;10.30;;
41305;SDS011;27051;50.376;19.152;2023-11-19T16:37:10;24.50;;;11.80;;
41305;SDS011;27051;50.376;19.152;2023-11-19T16:39:40;22.90;;;10.60;;
41305;SDS011;27051;50.376;19.152;2023-11-19T16:42:08;23.10;;;10.40;;
41305;SDS011;27051;50.376;19.152;2023-11-19T16:44:35;21.40;;;10.70;;
41305;SDS011;27051;50.376;19.152;2023-11-19T16:47:02;25.40;;;11.60;;
41305;SDS011;27051;50.376;19.152;2023-11-19T16:49:31;24.80;;;12.20;;
41305;SDS011;27051;50.376;19.152;2023-11-19T16:51:59;24.10;;;11.70;;
41305;SDS011;27051;50.376;19.152;2023-11-19T16:54:26;23.70;;;11.00;;
41305;SDS011;27051;50.376;19.152;2023-11-19T16:56:56;24.00;;;13.40;;
41305;SDS011;27051;50.376;19.152;2023-11-19T16:59:23;25.80;;;13.30;;
41305;SDS011;27051;50.376;19.152;2023-11-19T17:01:49;25.80;;;12.50;;
41305;SDS011;27051;50.376;19.152;2023-11-19T17:04:17;24.70;;;12.00;;
41305;SDS011;27051;50.376;19.152;2023-11-19T17:06:44;29.50;;;14.90;;
41305;SDS011;27051;50.376;19.152;2023-11-19T17:12:00;22.30;;;11.40;;
41305;SDS011;27051;50.376;19.152;2023-11-19T17:14:27;21.30;;;11.50;;
41305;SDS011;27051;50.376;19.152;2023-11-19T17:17:03;23.20;;;11.10;;
41305;SDS011;27051;50.376;19.152;2023-11-19T17:19:47;22.60;;;10.70;;
41305;SDS011;27051;50.376;19.152;2023-11-19T17:25:03;21.90;;;11.10;;
41305;SDS011;27051;50.376;19.152;2023-11-19T17:30:56;24.60;;;13.80;;
41305;SDS011;27051;50.376;19.152;2023-11-19T17:33:44;24.20;;;11.90;;
41305;SDS011;27051;50.376;19.152;2023-11-19T17:36:19;20.50;;;10.80;;
41305;SDS011;27051;50.376;19.152;2023-11-19T17:41:47;23.90;;;12.60;;
41305;SDS011;27051;50.376;19.152;2023-11-19T17:47:20;25.90;;;13.70;;
41305;SDS011;27051;50.376;19.152;2023-11-19T17:49:56;23.50;;;12.20;;
41305;SDS011;27051;50.376;19.152;2023-11-19T17:52:39;24.90;;;12.30;;
41305;SDS011;27051;50.376;19.152;2023-11-19T17:55:36;23.40;;;12.40;;
41305;SDS011;27051;50.376;19.152;2023-11-19T17:58:01;24.20;;;12.10;;
41305;SDS011;27051;50.376;19.152;2023-11-19T18:03:39;24.20;;;12.80;;
41305;SDS011;27051;50.376;19.152;2023-11-19T18:06:12;28.10;;;14.60;;
41305;SDS011;27051;50.376;19.152;2023-11-19T18:08:42;26.50;;;13.60;;
41305;SDS011;27051;50.376;19.152;2023-11-19T18:11:28;24.40;;;12.40;;
41305;SDS011;27051;50.376;19.152;2023-11-19T18:13:58;24.40;;;13.40;;
41305;SDS011;27051;50.376;19.152;2023-11-19T18:17:06;24.00;;;11.30;;
41305;SDS011;27051;50.376;19.152;2023-11-19T18:19:32;24.70;;;13.10;;
41305;SDS011;27051;50.376;19.152;2023-11-19T18:22:19;27.30;;;13.20;;
41305;SDS011;27051;50.376;19.152;2023-11-19T18:25:01;22.70;;;11.10;;
41305;SDS011;27051;50.376;19.152;2023-11-19T18:27:59;27.00;;;13.50;;
41305;SDS011;27051;50.376;19.152;2023-11-19T18:30:28;24.20;;;11.90;;
41305;SDS011;27051;50.376;19.152;2023-11-19T18:33:06;21.40;;;11.30;;
41305;SDS011;27051;50.376;19.152;2023-11-19T18:35:36;22.20;;;12.30;;
41305;SDS011;27051;50.376;19.152;2023-11-19T18:38:03;23.50;;;11.10;;
41305;SDS011;27051;50.376;19.152;2023-11-19T18:46:00;23.60;;;11.30;;
41305;SDS011;27051;50.376;19.152;2023-11-19T18:48:50;26.30;;;13.00;;
41305;SDS011;27051;50.376;19.152;2023-11-19T18:51:19;26.60;;;13.70;;
41305;SDS011;27051;50.376;19.152;2023-11-19T18:54:06;23.70;;;12.20;;
41305;SDS011;27051;50.376;19.152;2023-11-19T18:56:44;25.30;;;12.70;;
41305;SDS011;27051;50.376;19.152;2023-11-19T18:59:11;25.90;;;13.80;;
41305;SDS011;27051;50.376;19.152;2023-11-19T19:01:46;23.20;;;12.30;;
41305;SDS011;27051;50.376;19.152;2023-11-19T19:04:22;24.20;;;11.90;;
41305;SDS011;27051;50.376;19.152;2023-11-19T19:06:49;22.30;;;11.40;;
41305;SDS011;27051;50.376;19.152;2023-11-19T19:09:16;23.20;;;11.00;;
41305;SDS011;27051;50.376;19.152;2023-11-19T19:15:01;23.10;;;11.90;;
41305;SDS011;27051;50.376;19.152;2023-11-19T19:17:36;23.20;;;10.90;;
41305;SDS011;27051;50.376;19.152;2023-11-19T19:20:12;25.60;;;12.40;;
41305;SDS011;27051;50.376;19.152;2023-11-19T19:22:39;28.70;;;14.50;;
41305;SDS011;27051;50.376;19.152;2023-11-19T19:25:07;29.00;;;15.00;;
41305;SDS011;27051;50.376;19.152;2023-11-19T19:27:34;28.70;;;14.90;;
41305;SDS011;27051;50.376;19.152;2023-11-19T19:30:01;29.40;;;13.60;;
41305;SDS011;27051;50.376;19.152;2023-11-19T19:32:28;30.50;;;13.40;;
41305;SDS011;27051;50.376;19.152;2023-11-19T19:37:49;28.30;;;14.50;;